Airfield :
LOGIN :

Register | Disclaimer

   EN    FR    IT 

 










Legend :    VFR   Marginal VFR   IFR   Intensive IFR   Very Intensive IFR
Visi :
Ceiling :
>= 8 km
>= 3000ft
5 to 8 km
1000 to 3000 ft
1500m to 5 km
500 to 1000 ft
800 to 1500m
200 to 500 ft
< 800m
< 200 ft
Symbols :   Thunderstorms  Fog  Heavy snow  Heavy precipitations  Wind > 20 kt
SIGMETs :     Misc.  Thunderstorms  Icing  Turbulence  Mountain Waves  Volcanic Ashes






- Airport Elevation : 83 ft
- IATA code : LHR


EGLL - London Heathrow

CURRENT METAR :
  • 270720Z AUTO 35007KT 290V020 9999 -RA BKN011/// OVC015/// //////TCU 03/02 Q0990

EXPIRED METARs :
  • 270650Z AUTO 35009KT 310V030 7000 -RA BKN011/// OVC018/// //////TCU 04/02 Q0989 TEMPO BKN015
  • 270620Z AUTO 34007KT 310V020 9999 OVC013 04/01 Q0988 TEMPO SHRA
  • 270550Z AUTO 35007KT 320V030 9999 OVC013/// //////TCU 03/02 Q0987 TEMPO SHRA
  • 270520Z AUTO 34009KT 310V020 9999 -RA BKN016 OVC022 04/01 Q0986
  • 270450Z AUTO 34008KT 300V030 9999 BKN017/// OVC021/// //////TCU 04/01 Q0985

TAF TAF EGLL
Valid from the 27 at 06:00 until the 28 at 12:00 UTC


270455Z 2706/2812 35015G25KT 9999 SCT025
TEMPO 2706/2719 7000 -RA BKN012
PROB30
TEMPO 2706/2714 3000 -RASN BKN005
BECMG 2714/2717 32020G33KT
BECMG 2800/2803 32012KT



MET'MAP, your aeronautical weather chart ! - Copyright ORBIFLY December 2007 - Disclaimer

ORBIFLY MET'MAP TEAM :

Programming & Development : Alexandra Zaïnal
Concept & original design : Baudouin d'Aumeries
Assistance for programming : Marc-Olivier Méhu
Technical & hardware support : Manuel Goepfert

Contact : metmap@orbifly.com




SOURCES & CREDITS :

   NOAA